^^
Saratoga-Weather Station Historical Data
Daily Summary for October 22, 2021 Units:  Both    English   Metric
Daily Weekly Monthly Yearly Custom
  High: Low: Average:
Temperature: 48.7 °F /  9.3 °C 36.9 °F /  2.7 °C 40.8 °F /  4.9 °C
Dew Point: 43.9 °F /  6.6 °C 35.6 °F /  2 °C 38.8 °F /  3.8 °C
Humidity: 96% 82% 93%
Wind Speed: 13mph /  20.9km/h - 2.5mph /  4km/h
Wind Gust: 13mph /  20.9km/h - -
Wind- - WSW
Pressure: 30.2 in /  1021.3 hPa 30 in /  1016.3 hPa -
Precipitation: 0.01 in /  0.2 mm    
Historical Graphs
 
 
Tabular Data for October 22, 2021
Time Temperature Dew Point Pressure Wind Wind Speed Wind Gust Humidity Rainfall Rate (Hourly) solar
00:04 43.7 °F /  6.5 °C 41.5 °F /  5.3 °C 30in /  1016.3hPa West 6.9mph /  11.1km/h 8mph /  12.9km/h 92% 0in /  0.0mm 0 W/m2
00:09 43.9 °F /  6.6 °C 41.7 °F /  5.4 °C 30in /  1016.3hPa West 2.9mph /  4.7km/h 7mph /  11.3km/h 92% 0in /  0.0mm 0 W/m2
00:14 43.9 °F /  6.6 °C 41.7 °F /  5.4 °C 30in /  1016.3hPa West 2mph /  3.2km/h 6mph /  9.7km/h 92% 0in /  0.0mm 0 W/m2
00:19 43.7 °F /  6.5 °C 41.5 °F /  5.3 °C 30in /  1016.3hPa West 2.9mph /  4.7km/h 9mph /  14.5km/h 92% 0in /  0.0mm 0 W/m2
00:24 43.7 °F /  6.5 °C 41.5 °F /  5.3 °C 30in /  1016.3hPa NW 2.9mph /  4.7km/h 8mph /  12.9km/h 92% 0in /  0.0mm 0 W/m2
00:29 43.7 °F /  6.5 °C 41.5 °F /  5.3 °C 30in /  1016.3hPa WNW 2mph /  3.2km/h 7mph /  11.3km/h 92% 0in /  0.0mm 0 W/m2
00:34 43.5 °F /  6.4 °C 41 °F /  5 °C 30in /  1016.3hPa West 4mph /  6.4km/h 7mph /  11.3km/h 91% 0in /  0.0mm 0 W/m2
00:39 43.5 °F /  6.4 °C 41 °F /  5 °C 30in /  1016.6hPa WSW 4.9mph /  7.9km/h 7mph /  11.3km/h 91% 0in /  0.0mm 0 W/m2
00:44 43.5 °F /  6.4 °C 41 °F /  5 °C 30in /  1016.6hPa WNW 2.9mph /  4.7km/h 7mph /  11.3km/h 91% 0in /  0.0mm 0 W/m2
00:49 43.3 °F /  6.3 °C 41.2 °F /  5.1 °C 30in /  1016.6hPa WSW 2.9mph /  4.7km/h 7mph /  11.3km/h 92% 0in /  0.0mm 0 W/m2
00:54 43.3 °F /  6.3 °C 41.2 °F /  5.1 °C 30in /  1016.6hPa WSW 2mph /  3.2km/h 6mph /  9.7km/h 92% 0in /  0.0mm 0 W/m2
00:59 43.3 °F /  6.3 °C 40.8 °F /  4.9 °C 30in /  1016.9hPa WNW 2.9mph /  4.7km/h 4mph /  6.4km/h 91% 0in /  0.0mm 0 W/m2
01:04 43.2 °F /  6.2 °C 41 °F /  5 °C 30in /  1016.9hPa WSW 4mph /  6.4km/h 4mph /  6.4km/h 92% 0in /  0.0mm 0 W/m2
01:10 43 °F /  6.1 °C 40.8 °F /  4.9 °C 30in /  1016.9hPa WSW 2.9mph /  4.7km/h 7mph /  11.3km/h 92% 0in /  0.0mm 0 W/m2
01:15 43 °F /  6.1 °C 40.8 °F /  4.9 °C 30in /  1016.9hPa West 2.9mph /  4.7km/h 6mph /  9.7km/h 92% 0in /  0.0mm 0 W/m2
01:20 43 °F /  6.1 °C 40.8 °F /  4.9 °C 30in /  1016.9hPa West 2.9mph /  4.7km/h 7mph /  11.3km/h 92% 0in /  0.0mm 0 W/m2
01:25 42.8 °F /  6 °C 40.6 °F /  4.8 °C 30in /  1016.9hPa WNW 4mph /  6.4km/h 5mph /  8km/h 92% 0in /  0.0mm 0 W/m2
01:30 42.6 °F /  5.9 °C 40.5 °F /  4.7 °C 30in /  1016.9hPa West 2mph /  3.2km/h 7mph /  11.3km/h 92% 0in /  0.0mm 0 W/m2
01:35 42.6 °F /  5.9 °C 40.5 °F /  4.7 °C 30in /  1017.3hPa West 2.9mph /  4.7km/h 4mph /  6.4km/h 92% 0in /  0.0mm 0 W/m2
01:40 42.4 °F /  5.8 °C 40.3 °F /  4.6 °C 30in /  1016.9hPa West 2.9mph /  4.7km/h 7mph /  11.3km/h 92% 0in /  0.0mm 0 W/m2
01:45 42.4 °F /  5.8 °C 40.3 °F /  4.6 °C 30in /  1016.9hPa West 2mph /  3.2km/h 4mph /  6.4km/h 92% 0in /  0.0mm 0 W/m2
01:50 42.4 °F /  5.8 °C 40.6 °F /  4.8 °C 30in /  1017.3hPa WSW 2mph /  3.2km/h 4mph /  6.4km/h 93% 0in /  0.0mm 0 W/m2
01:55 42.3 °F /  5.7 °C 40.5 °F /  4.7 °C 30in /  1017.3hPa West 0.9mph /  1.4km/h 4mph /  6.4km/h 93% 0in /  0.0mm 0 W/m2
02:00 42.3 °F /  5.7 °C 40.5 °F /  4.7 °C 30in /  1017.3hPa West 4mph /  6.4km/h 5mph /  8km/h 93% 0in /  0.0mm 0 W/m2
02:05 42.3 °F /  5.7 °C 40.5 °F /  4.7 °C 30in /  1017.3hPa WSW 2.9mph /  4.7km/h 4mph /  6.4km/h 93% 0in /  0.0mm 0 W/m2
02:10 42.3 °F /  5.7 °C 40.5 °F /  4.7 °C 30in /  1017.3hPa WNW 4mph /  6.4km/h 8mph /  12.9km/h 93% 0in /  0.0mm 0 W/m2
02:15 42.3 °F /  5.7 °C 40.5 °F /  4.7 °C 30in /  1017.3hPa SW 2mph /  3.2km/h 4mph /  6.4km/h 93% 0in /  0.0mm 0 W/m2
02:20 42.1 °F /  5.6 °C 39.9 °F /  4.4 °C 30in /  1017.3hPa West 2.9mph /  4.7km/h 8mph /  12.9km/h 92% 0in /  0.0mm 0 W/m2
02:25 41.9 °F /  5.5 °C 40.1 °F /  4.5 °C 30.1in /  1017.6hPa West 2.9mph /  4.7km/h 6mph /  9.7km/h 93% 0in /  0.0mm 0 W/m2
02:30 41.9 °F /  5.5 °C 40.1 °F /  4.5 °C 30.1in /  1017.6hPa West 4mph /  6.4km/h 6mph /  9.7km/h 93% 0in /  0.0mm 0 W/m2
02:35 41.7 °F /  5.4 °C 39.9 °F /  4.4 °C 30.1in /  1017.6hPa West 4mph /  6.4km/h 6mph /  9.7km/h 93% 0in /  0.0mm 0 W/m2
02:40 41.7 °F /  5.4 °C 39.9 °F /  4.4 °C 30.1in /  1017.6hPa West 6mph /  9.7km/h 6mph /  9.7km/h 93% 0in /  0.0mm 0 W/m2
02:45 41.7 °F /  5.4 °C 39.9 °F /  4.4 °C 30.1in /  1017.6hPa West 2mph /  3.2km/h 6mph /  9.7km/h 93% 0in /  0.0mm 0 W/m2
02:50 41.9 °F /  5.5 °C 40.1 °F /  4.5 °C 30.1in /  1017.6hPa WNW 2mph /  3.2km/h 3mph /  4.8km/h 93% 0in /  0.0mm 0 W/m2
02:55 41.9 °F /  5.5 °C 40.1 °F /  4.5 °C 30.1in /  1017.6hPa WNW 2.9mph /  4.7km/h 4mph /  6.4km/h 93% 0in /  0.0mm 0 W/m2
03:00 41.7 °F /  5.4 °C 39.9 °F /  4.4 °C 30.1in /  1017.6hPa West 2mph /  3.2km/h 4mph /  6.4km/h 93% 0in /  0.0mm 0 W/m2
03:05 41.7 °F /  5.4 °C 39.9 °F /  4.4 °C 30.1in /  1017.6hPa WNW 6.9mph /  11.1km/h 7mph /  11.3km/h 93% 0in /  0.0mm 0 W/m2
03:10 41.5 °F /  5.3 °C 39.7 °F /  4.3 °C 30.1in /  1017.6hPa Calm   6mph /  9.7km/h 93% 0in /  0.0mm 0 W/m2
03:15 41.5 °F /  5.3 °C 39.7 °F /  4.3 °C 30.1in /  1017.6hPa West 2mph /  3.2km/h 3mph /  4.8km/h 93% 0in /  0.0mm 0 W/m2
03:20 41.4 °F /  5.2 °C 39.6 °F /  4.2 °C 30.1in /  1017.6hPa Calm   6mph /  9.7km/h 93% 0in /  0.0mm 0 W/m2
03:25 41.2 °F /  5.1 °C 39.4 °F /  4.1 °C 30.1in /  1017.6hPa Calm   3mph /  4.8km/h 93% 0in /  0.0mm 0 W/m2
03:30 41 °F /  5 °C 39.2 °F /  4 °C 30.1in /  1017.6hPa Calm   3mph /  4.8km/h 93% 0in /  0.0mm 0 W/m2
03:35 40.8 °F /  4.9 °C 39 °F /  3.9 °C 30.1in /  1017.6hPa WNW 2mph /  3.2km/h 7mph /  11.3km/h 93% 0in /  0.0mm 0 W/m2
03:40 40.6 °F /  4.8 °C 38.8 °F /  3.8 °C 30.1in /  1017.6hPa WNW 0.9mph /  1.4km/h 1mph /  1.6km/h 93% 0in /  0.0mm 0 W/m2
03:45 40.6 °F /  4.8 °C 38.8 °F /  3.8 °C 30.1in /  1017.6hPa Calm   4mph /  6.4km/h 93% 0in /  0.0mm 0 W/m2
03:50 40.5 °F /  4.7 °C 38.7 °F /  3.7 °C 30.1in /  1017.6hPa Calm     93% 0in /  0.0mm 0 W/m2
03:55 40.3 °F /  4.6 °C 38.5 °F /  3.6 °C 30in /  1017.3hPa Calm     93% 0in /  0.0mm 0 W/m2
04:00 39.9 °F /  4.4 °C 38.1 °F /  3.4 °C 30.1in /  1017.6hPa NW 0.9mph /  1.4km/h 2mph /  3.2km/h 93% 0in /  0.0mm 0 W/m2
04:05 39.9 °F /  4.4 °C 38.3 °F /  3.5 °C 30.1in /  1017.6hPa Calm   1mph /  1.6km/h 94% 0in /  0.0mm 0 W/m2
04:10 39.9 °F /  4.4 °C 38.3 °F /  3.5 °C 30.1in /  1017.6hPa NW 2mph /  3.2km/h 2mph /  3.2km/h 94% 0in /  0.0mm 0 W/m2
04:15 39.9 °F /  4.4 °C 38.3 °F /  3.5 °C 30.1in /  1017.6hPa NW 0.9mph /  1.4km/h 1mph /  1.6km/h 94% 0in /  0.0mm 0 W/m2
04:20 39.7 °F /  4.3 °C 38.1 °F /  3.4 °C 30.1in /  1018.0hPa NW 0.9mph /  1.4km/h 2mph /  3.2km/h 94% 0in /  0.0mm 0 W/m2
04:25 39.4 °F /  4.1 °C 37.8 °F /  3.2 °C 30.1in /  1018.0hPa ENE 2mph /  3.2km/h 2mph /  3.2km/h 94% 0in /  0.0mm 0 W/m2
04:30 39.2 °F /  4 °C 37.6 °F /  3.1 °C 30.1in /  1018.0hPa ESE 0.9mph /  1.4km/h 3mph /  4.8km/h 94% 0in /  0.0mm 0 W/m2
04:35 39 °F /  3.9 °C 37.4 °F /  3 °C 30.1in /  1018.0hPa Calm   2mph /  3.2km/h 94% 0in /  0.0mm 0 W/m2
04:40 38.8 °F /  3.8 °C 37.2 °F /  2.9 °C 30.1in /  1018.0hPa ESE 2mph /  3.2km/h 2mph /  3.2km/h 94% 0in /  0.0mm 0 W/m2
04:45 38.8 °F /  3.8 °C 37.2 °F /  2.9 °C 30.1in /  1018.0hPa East 0.9mph /  1.4km/h 2mph /  3.2km/h 94% 0in /  0.0mm 0 W/m2
04:50 38.7 °F /  3.7 °C 37 °F /  2.8 °C 30.1in /  1018.0hPa Calm   1mph /  1.6km/h 94% 0in /  0.0mm 0 W/m2
04:55 38.7 °F /  3.7 °C 37 °F /  2.8 °C 30.1in /  1018.0hPa ESE 0.9mph /  1.4km/h 1mph /  1.6km/h 94% 0in /  0.0mm 0 W/m2
05:00 38.5 °F /  3.6 °C 36.9 °F /  2.7 °C 30.1in /  1018.0hPa Calm   2mph /  3.2km/h 94% 0in /  0.0mm 0 W/m2
05:05 38.5 °F /  3.6 °C 37.2 °F /  2.9 °C 30.1in /  1018.0hPa ESE 0.9mph /  1.4km/h 2mph /  3.2km/h 95% 0in /  0.0mm 0 W/m2
05:10 38.3 °F /  3.5 °C 37 °F /  2.8 °C 30.1in /  1018.3hPa ESE 2mph /  3.2km/h 2mph /  3.2km/h 95% 0in /  0.0mm 0 W/m2
05:15 38.1 °F /  3.4 °C 36.9 °F /  2.7 °C 30.1in /  1018.3hPa ESE 2mph /  3.2km/h 3mph /  4.8km/h 95% 0in /  0.0mm 0 W/m2
05:20 38.1 °F /  3.4 °C 36.9 °F /  2.7 °C 30.1in /  1018.3hPa ESE 0.9mph /  1.4km/h 2mph /  3.2km/h 95% 0in /  0.0mm 0 W/m2
05:25 37.9 °F /  3.3 °C 36.7 °F /  2.6 °C 30.1in /  1018.3hPa East 0.9mph /  1.4km/h 2mph /  3.2km/h 95% 0in /  0.0mm 0 W/m2
05:30 37.9 °F /  3.3 °C 36.7 °F /  2.6 °C 30.1in /  1018.3hPa ESE 0.9mph /  1.4km/h 2mph /  3.2km/h 95% 0in /  0.0mm 0 W/m2
05:35 37.8 °F /  3.2 °C 36.5 °F /  2.5 °C 30.1in /  1018.3hPa Calm   3mph /  4.8km/h 95% 0in /  0.0mm 0 W/m2
05:40 37.8 °F /  3.2 °C 36.5 °F /  2.5 °C 30.1in /  1018.3hPa East 2mph /  3.2km/h 3mph /  4.8km/h 95% 0in /  0.0mm 0 W/m2
05:45 37.9 °F /  3.3 °C 36.7 °F /  2.6 °C 30.1in /  1018.3hPa ESE 0.9mph /  1.4km/h 2mph /  3.2km/h 95% 0in /  0.0mm 0 W/m2
05:50 37.9 °F /  3.3 °C 36.7 °F /  2.6 °C 30.1in /  1018.3hPa Calm   3mph /  4.8km/h 95% 0in /  0.0mm 0 W/m2
05:55 37.8 °F /  3.2 °C 36.5 °F /  2.5 °C 30.1in /  1018.3hPa Calm     95% 0in /  0.0mm 0 W/m2
06:01 37.8 °F /  3.2 °C 36.5 °F /  2.5 °C 30.1in /  1018.3hPa Calm   1mph /  1.6km/h 95% 0in /  0.0mm 0 W/m2
06:06 37.8 °F /  3.2 °C 36.5 °F /  2.5 °C 30.1in /  1018.3hPa Calm   1mph /  1.6km/h 95% 0in /  0.0mm 0 W/m2
06:11 37.8 °F /  3.2 °C 36.5 °F /  2.5 °C 30.1in /  1018.3hPa Calm     95% 0in /  0.0mm 0 W/m2
06:16 37.8 °F /  3.2 °C 36.5 °F /  2.5 °C 30.1in /  1018.6hPa NW 0.9mph /  1.4km/h 3mph /  4.8km/h 95% 0in /  0.0mm 0 W/m2
06:21 37.9 °F /  3.3 °C 36.7 °F /  2.6 °C 30.1in /  1018.6hPa WNW 0.9mph /  1.4km/h 5mph /  8km/h 95% 0in /  0.0mm 0 W/m2
06:26 38.3 °F /  3.5 °C 37.2 °F /  2.9 °C 30.1in /  1018.6hPa West 2.9mph /  4.7km/h 4mph /  6.4km/h 96% 0in /  0.0mm 0 W/m2
06:31 38.5 °F /  3.6 °C 37.4 °F /  3 °C 30.1in /  1018.3hPa WNW 2.9mph /  4.7km/h 7mph /  11.3km/h 96% 0in /  0.0mm 0 W/m2
06:36 38.5 °F /  3.6 °C 37.4 °F /  3 °C 30.1in /  1018.3hPa West 4mph /  6.4km/h 8mph /  12.9km/h 96% 0in /  0.0mm 0 W/m2
06:41 38.3 °F /  3.5 °C 37.2 °F /  2.9 °C 30.1in /  1018.3hPa West 2.9mph /  4.7km/h 6mph /  9.7km/h 96% 0in /  0.0mm 0 W/m2
06:46 38.1 °F /  3.4 °C 37 °F /  2.8 °C 30.1in /  1018.3hPa WNW 2.9mph /  4.7km/h 5mph /  8km/h 96% 0in /  0.0mm 0 W/m2
06:51 38.1 °F /  3.4 °C 37 °F /  2.8 °C 30.1in /  1018.3hPa NW 2mph /  3.2km/h 4mph /  6.4km/h 96% 0in /  0.0mm 0 W/m2
06:56 38.1 °F /  3.4 °C 37 °F /  2.8 °C 30.1in /  1018.3hPa NW 4mph /  6.4km/h 6mph /  9.7km/h 96% 0in /  0.0mm 0 W/m2
07:01 38.3 °F /  3.5 °C 37.2 °F /  2.9 °C 30.1in /  1018.3hPa WNW 2.9mph /  4.7km/h 4mph /  6.4km/h 96% 0in /  0.0mm 0 W/m2
07:06 38.3 °F /  3.5 °C 37.2 °F /  2.9 °C 30.1in /  1018.3hPa NW 2.9mph /  4.7km/h 4mph /  6.4km/h 96% 0in /  0.0mm 0 W/m2
07:11 38.3 °F /  3.5 °C 37.2 °F /  2.9 °C 30.1in /  1018.3hPa Calm   4mph /  6.4km/h 96% 0in /  0.0mm 0 W/m2
07:16 38.3 °F /  3.5 °C 37.2 °F /  2.9 °C 30.1in /  1018.3hPa NW 0.9mph /  1.4km/h 2mph /  3.2km/h 96% 0in /  0.0mm 0 W/m2
07:21 38.3 °F /  3.5 °C 37.2 °F /  2.9 °C 30.1in /  1018.3hPa NW 0.9mph /  1.4km/h 2mph /  3.2km/h 96% 0in /  0.0mm 0 W/m2
07:26 38.1 °F /  3.4 °C 36.9 °F /  2.7 °C 30.1in /  1018.6hPa NW 0.9mph /  1.4km/h 1mph /  1.6km/h 95% 0in /  0.0mm 0 W/m2
07:31 37.9 °F /  3.3 °C 36.7 °F /  2.6 °C 30.1in /  1018.6hPa NW 0.9mph /  1.4km/h 3mph /  4.8km/h 95% 0in /  0.0mm 0 W/m2
07:36 37.9 °F /  3.3 °C 36.7 °F /  2.6 °C 30.1in /  1018.6hPa NW 0.9mph /  1.4km/h 2mph /  3.2km/h 95% 0in /  0.0mm 0 W/m2
07:41 37.8 °F /  3.2 °C 36.5 °F /  2.5 °C 30.1in /  1018.6hPa Calm   1mph /  1.6km/h 95% 0in /  0.0mm 0 W/m2
07:46 37.8 °F /  3.2 °C 36.5 °F /  2.5 °C 30.1in /  1018.6hPa NE 0.9mph /  1.4km/h 2mph /  3.2km/h 95% 0in /  0.0mm 0 W/m2
07:51 37.6 °F /  3.1 °C 36.3 °F /  2.4 °C 30.1in /  1018.6hPa Calm   1mph /  1.6km/h 95% 0in /  0.0mm 0 W/m2
07:56 37.6 °F /  3.1 °C 36.3 °F /  2.4 °C 30.1in /  1019.0hPa ENE 0.9mph /  1.4km/h 2mph /  3.2km/h 95% 0in /  0.0mm 0 W/m2
08:01 37.4 °F /  3 °C 36.1 °F /  2.3 °C 30.1in /  1019.0hPa Calm   1mph /  1.6km/h 95% 0in /  0.0mm 0 W/m2
08:06 37.2 °F /  2.9 °C 36 °F /  2.2 °C 30.1in /  1019.0hPa Calm   1mph /  1.6km/h 95% 0in /  0.0mm 0 W/m2
08:11 37 °F /  2.8 °C 35.8 °F /  2.1 °C 30.1in /  1019.3hPa NNW 2.9mph /  4.7km/h 3mph /  4.8km/h 95% 0in /  0.0mm 5 W/m2
08:16 37 °F /  2.8 °C 35.8 °F /  2.1 °C 30.1in /  1019.3hPa Calm   1mph /  1.6km/h 95% 0in /  0.0mm 7 W/m2
08:21 37 °F /  2.8 °C 35.8 °F /  2.1 °C 30.1in /  1019.3hPa West 2.9mph /  4.7km/h 7mph /  11.3km/h 95% 0in /  0.0mm 9 W/m2
08:26 37 °F /  2.8 °C 35.8 °F /  2.1 °C 30.1in /  1019.3hPa Calm   2mph /  3.2km/h 95% 0in /  0.0mm 11 W/m2
08:31 36.9 °F /  2.7 °C 35.6 °F /  2 °C 30.1in /  1019.3hPa NW 0.9mph /  1.4km/h 7mph /  11.3km/h 95% 0in /  0.0mm 12 W/m2
08:36 36.9 °F /  2.7 °C 35.6 °F /  2 °C 30.1in /  1019.3hPa Calm   2mph /  3.2km/h 95% 0in /  0.0mm 14 W/m2
08:41 36.9 °F /  2.7 °C 35.6 °F /  2 °C 30.1in /  1019.3hPa WSW 0.9mph /  1.4km/h 1mph /  1.6km/h 95% 0in /  0.0mm 16 W/m2
08:46 36.9 °F /  2.7 °C 35.6 °F /  2 °C 30.1in /  1019.3hPa SW 3mph /  4.8km/h 3mph /  4.8km/h 95% 0in /  0.0mm 16 W/m2
08:51 36.9 °F /  2.7 °C 35.6 °F /  2 °C 30.1in /  1019.6hPa WNW 0.9mph /  1.4km/h 1mph /  1.6km/h 95% 0.01in /  0.2mm 18 W/m2
08:56 37 °F /  2.8 °C 35.8 °F /  2.1 °C 30.1in /  1019.6hPa WSW 0.9mph /  1.4km/h 3mph /  4.8km/h 95% 0.01in /  0.2mm 19 W/m2
09:01 37 °F /  2.8 °C 36 °F /  2.2 °C 30.1in /  1019.6hPa North 2mph /  3.2km/h 2mph /  3.2km/h 96% 0.01in /  0.2mm 21 W/m2
09:07 37.2 °F /  2.9 °C 36.1 °F /  2.3 °C 30.1in /  1020.0hPa NNE 2mph /  3.2km/h 3mph /  4.8km/h 96% 0.01in /  0.2mm 26 W/m2
09:12 37.2 °F /  2.9 °C 36.1 °F /  2.3 °C 30.1in /  1020.0hPa Calm   1mph /  1.6km/h 96% 0.01in /  0.2mm 91 W/m2
09:17 37.4 °F /  3 °C 36.3 °F /  2.4 °C 30.1in /  1020.0hPa Calm   1mph /  1.6km/h 96% 0.01in /  0.2mm 104 W/m2
09:22 37.6 °F /  3.1 °C 36.5 °F /  2.5 °C 30.1in /  1020.0hPa NW 2mph /  3.2km/h 2mph /  3.2km/h 96% 0.01in /  0.2mm 49 W/m2
09:27 37.6 °F /  3.1 °C 36.5 °F /  2.5 °C 30.1in /  1020.0hPa West 0.9mph /  1.4km/h 2mph /  3.2km/h 96% 0.01in /  0.2mm 32 W/m2
09:37 37.8 °F /  3.2 °C 36.7 °F /  2.6 °C 30.1in /  1020.0hPa West 2mph /  3.2km/h 2mph /  3.2km/h 96% 0.01in /  0.2mm 28 W/m2
09:42 37.9 °F /  3.3 °C 36.9 °F /  2.7 °C 30.1in /  1020.0hPa WNW 0.9mph /  1.4km/h 3mph /  4.8km/h 96% 0.01in /  0.2mm 30 W/m2
09:47 38.3 °F /  3.5 °C 37.2 °F /  2.9 °C 30.1in /  1020.0hPa WNW 2mph /  3.2km/h 3mph /  4.8km/h 96% 0.01in /  0.2mm 153 W/m2
09:52 38.8 °F /  3.8 °C 37.8 °F /  3.2 °C 30.1in /  1020.3hPa WNW 2.9mph /  4.7km/h 5mph /  8km/h 96% 0in /  0.0mm 30 W/m2
09:57 39.2 °F /  4 °C 38.1 °F /  3.4 °C 30.1in /  1020.3hPa WNW 2.9mph /  4.7km/h 4mph /  6.4km/h 96% 0in /  0.0mm 213 W/m2
10:02 39.6 °F /  4.2 °C 38.5 °F /  3.6 °C 30.1in /  1020.0hPa WNW 2mph /  3.2km/h 8mph /  12.9km/h 96% 0in /  0.0mm 223 W/m2
10:07 39.9 °F /  4.4 °C 38.8 °F /  3.8 °C 30.1in /  1020.3hPa WSW 4mph /  6.4km/h 4mph /  6.4km/h 96% 0in /  0.0mm 234 W/m2
10:12 40.3 °F /  4.6 °C 39 °F /  3.9 °C 30.1in /  1020.3hPa NW 4.9mph /  7.9km/h 7mph /  11.3km/h 95% 0in /  0.0mm 244 W/m2
10:17 40.6 °F /  4.8 °C 39 °F /  3.9 °C 30.1in /  1020.3hPa NW 0.9mph /  1.4km/h 4mph /  6.4km/h 94% 0in /  0.0mm 257 W/m2
10:22 40.8 °F /  4.9 °C 39.2 °F /  4 °C 30.1in /  1020.3hPa WNW 6mph /  9.7km/h 6mph /  9.7km/h 94% 0in /  0.0mm 262 W/m2
10:27 41 °F /  5 °C 39.2 °F /  4 °C 30.1in /  1020.7hPa WNW 6.9mph /  11.1km/h 7mph /  11.3km/h 93% 0in /  0.0mm 255 W/m2
10:32 41.2 °F /  5.1 °C 39.4 °F /  4.1 °C 30.1in /  1020.7hPa WSW 2.9mph /  4.7km/h 8mph /  12.9km/h 93% 0in /  0.0mm 283 W/m2
10:37 41.4 °F /  5.2 °C 39.2 °F /  4 °C 30.1in /  1020.7hPa NW 4mph /  6.4km/h 7mph /  11.3km/h 92% 0in /  0.0mm 288 W/m2
10:42 41.4 °F /  5.2 °C 39 °F /  3.9 °C 30.1in /  1020.7hPa West 6mph /  9.7km/h 6mph /  9.7km/h 91% 0in /  0.0mm 287 W/m2
10:47 41.4 °F /  5.2 °C 39 °F /  3.9 °C 30.1in /  1020.7hPa WNW 2mph /  3.2km/h 6mph /  9.7km/h 91% 0in /  0.0mm 125 W/m2
10:52 41.5 °F /  5.3 °C 39.2 °F /  4 °C 30.1in /  1020.7hPa WNW 2mph /  3.2km/h 10mph /  16.1km/h 91% 0in /  0.0mm 60 W/m2
10:57 41.5 °F /  5.3 °C 39.2 °F /  4 °C 30.1in /  1020.7hPa WNW 4.9mph /  7.9km/h 8mph /  12.9km/h 91% 0in /  0.0mm 118 W/m2
11:02 41.5 °F /  5.3 °C 39.2 °F /  4 °C 30.1in /  1020.7hPa West 2.9mph /  4.7km/h 12mph /  19.3km/h 91% 0in /  0.0mm 42 W/m2
11:07 41.5 °F /  5.3 °C 39.2 °F /  4 °C 30.1in /  1020.7hPa West 2mph /  3.2km/h 6mph /  9.7km/h 91% 0in /  0.0mm 37 W/m2
11:12 41.5 °F /  5.3 °C 39.2 °F /  4 °C 30.1in /  1020.7hPa West 8.1mph /  13km/h 12mph /  19.3km/h 91% 0in /  0.0mm 39 W/m2
11:17 41.9 °F /  5.5 °C 39.2 °F /  4 °C 30.1in /  1020.7hPa WNW 2.9mph /  4.7km/h 9mph /  14.5km/h 90% 0in /  0.0mm 39 W/m2
11:22 42.1 °F /  5.6 °C 39.4 °F /  4.1 °C 30.2in /  1021.0hPa WSW 2.9mph /  4.7km/h 10mph /  16.1km/h 90% 0in /  0.0mm 40 W/m2
11:27 42.3 °F /  5.7 °C 39.6 °F /  4.2 °C 30.2in /  1021.0hPa WSW 4.9mph /  7.9km/h 8mph /  12.9km/h 90% 0in /  0.0mm 42 W/m2
11:32 42.4 °F /  5.8 °C 39.7 °F /  4.3 °C 30.2in /  1021.0hPa WNW 0.9mph /  1.4km/h 4mph /  6.4km/h 90% 0in /  0.0mm 81 W/m2
11:37 42.4 °F /  5.8 °C 39.4 °F /  4.1 °C 30.2in /  1021.3hPa West 2.9mph /  4.7km/h 9mph /  14.5km/h 89% 0in /  0.0mm 53 W/m2
11:42 42.4 °F /  5.8 °C 39.4 °F /  4.1 °C 30.2in /  1021.0hPa NW 2.9mph /  4.7km/h 6mph /  9.7km/h 89% 0in /  0.0mm 81 W/m2
11:47 42.4 °F /  5.8 °C 39.4 °F /  4.1 °C 30.2in /  1021.0hPa NNW 2.9mph /  4.7km/h 7mph /  11.3km/h 89% 0in /  0.0mm 42 W/m2
11:52 42.4 °F /  5.8 °C 39.4 °F /  4.1 °C 30.2in /  1021.0hPa West 8.9mph /  14.3km/h 9mph /  14.5km/h 89% 0in /  0.0mm 40 W/m2
11:57 42.4 °F /  5.8 °C 39.4 °F /  4.1 °C 30.2in /  1021.0hPa WNW 2.9mph /  4.7km/h 7mph /  11.3km/h 89% 0in /  0.0mm 40 W/m2
12:02 42.4 °F /  5.8 °C 39.4 °F /  4.1 °C 30.2in /  1021.3hPa West 6mph /  9.7km/h 12mph /  19.3km/h 89% 0in /  0.0mm 42 W/m2
12:07 42.6 °F /  5.9 °C 39.6 °F /  4.2 °C 30.2in /  1021.0hPa WSW 0.9mph /  1.4km/h 4mph /  6.4km/h 89% 0in /  0.0mm 49 W/m2
12:12 43 °F /  6.1 °C 40.3 °F /  4.6 °C 30.2in /  1021.3hPa WSW 2mph /  3.2km/h 12mph /  19.3km/h 90% 0in /  0.0mm 137 W/m2
12:17 43.5 °F /  6.4 °C 40.8 °F /  4.9 °C 30.2in /  1021.3hPa WSW 4.9mph /  7.9km/h 10mph /  16.1km/h 90% 0in /  0.0mm 153 W/m2
12:22 44.2 °F /  6.8 °C 41.5 °F /  5.3 °C 30.2in /  1021.3hPa WSW 4.9mph /  7.9km/h 11mph /  17.7km/h 90% 0in /  0.0mm 113 W/m2
12:27 44.4 °F /  6.9 °C 41.4 °F /  5.2 °C 30.2in /  1021.3hPa NW 6mph /  9.7km/h 8mph /  12.9km/h 89% 0in /  0.0mm 95 W/m2
12:32 45 °F /  7.2 °C 41.9 °F /  5.5 °C 30.2in /  1021.3hPa West 6.9mph /  11.1km/h 8mph /  12.9km/h 89% 0in /  0.0mm 69 W/m2
12:37 45.1 °F /  7.3 °C 41.7 °F /  5.4 °C 30.2in /  1021.3hPa West 2.9mph /  4.7km/h 7mph /  11.3km/h 88% 0in /  0.0mm 144 W/m2
12:42 45.7 °F /  7.6 °C 42.3 °F /  5.7 °C 30.2in /  1021.3hPa WSW 4mph /  6.4km/h 6mph /  9.7km/h 88% 0in /  0.0mm 113 W/m2
12:47 46 °F /  7.8 °C 42.6 °F /  5.9 °C 30.2in /  1021.3hPa Calm   2mph /  3.2km/h 88% 0in /  0.0mm 236 W/m2
12:52 46.6 °F /  8.1 °C 43.2 °F /  6.2 °C 30.2in /  1021.3hPa West 2.9mph /  4.7km/h 6mph /  9.7km/h 88% 0in /  0.0mm 190 W/m2
12:57 46.9 °F /  8.3 °C 43.5 °F /  6.4 °C 30.2in /  1021.3hPa NW 2.9mph /  4.7km/h 6mph /  9.7km/h 88% 0in /  0.0mm 218 W/m2
13:02 47.3 °F /  8.5 °C 43 °F /  6.1 °C 30.2in /  1021.3hPa West 2.9mph /  4.7km/h 9mph /  14.5km/h 85% 0in /  0.0mm 181 W/m2
13:07 47.5 °F /  8.6 °C 42.8 °F /  6 °C 30.2in /  1021.3hPa SW 6mph /  9.7km/h 7mph /  11.3km/h 84% 0in /  0.0mm 165 W/m2
13:12 47.7 °F /  8.7 °C 43 °F /  6.1 °C 30.2in /  1021.3hPa West 2.9mph /  4.7km/h 10mph /  16.1km/h 84% 0in /  0.0mm 176 W/m2
13:17 47.7 °F /  8.7 °C 42.8 °F /  6 °C 30.2in /  1021.3hPa SW 2.9mph /  4.7km/h 5mph /  8km/h 83% 0in /  0.0mm 225 W/m2
13:22 47.8 °F /  8.8 °C 43.2 °F /  6.2 °C 30.2in /  1021.0hPa WNW 12.1mph /  19.5km/h 12mph /  19.3km/h 84% 0in /  0.0mm 162 W/m2
13:27 48.4 °F /  9.1 °C 43.5 °F /  6.4 °C 30.2in /  1021.0hPa WNW 10.1mph /  16.3km/h 13mph /  20.9km/h 83% 0in /  0.0mm 183 W/m2
13:33 48.6 °F /  9.2 °C 43.3 °F /  6.3 °C 30.2in /  1021.0hPa WNW 4.9mph /  7.9km/h 11mph /  17.7km/h 82% 0in /  0.0mm 105 W/m2
13:38 48.6 °F /  9.2 °C 43.3 °F /  6.3 °C 30.2in /  1021.0hPa NW 13mph /  20.9km/h 13mph /  20.9km/h 82% 0in /  0.0mm 93 W/m2
13:43 48.7 °F /  9.3 °C 43.9 °F /  6.6 °C 30.2in /  1021.0hPa SW 4.9mph /  7.9km/h 9mph /  14.5km/h 83% 0in /  0.0mm 151 W/m2
Juneau County Weather
Compliments of Weather Underground - 2 mb